Etusivu
METAR-TAF:

METAR-TAF

Lentoasemat :

Lac Qui Parle County Airport

Madison, Minnesota, Yhdysvallat

Leveyspiiri: 44-59-10N, Pituuspiiri: 096-10-40W, korkeus merenpinnasta: 330 m

Tämänhetkinen sää

Tämä raportti tehtiin 5 minuuttia sitten, kello 20.15 UTC
Tuuli 7 kn lännestä
Lämpötila -4°C
Kosteus 80%
Ilmanpaine 1025 hPa
Näkyvyys: 16.1 km
Pilvistä 1300 ft:n korkeudessa
tuntematon

METAR: KDXX 262015Z AUTO 28007KT 10SM UP OVC013 M04/M07 A3028 RMK AO2

Aika: 14:20 (20:20 UTC)


TAF: puuttuu

Säähavainnot ja -ennusteet yli 4000 lentoasemalta (METAR- ja TAF-raportit).

Käytössä olevat sääasemat on merkitty karttaan keltaisilla ja punaisilla pisteillä.

Aseta hiiri pisteen päälle nähdäksesi sääaseman nimen.

Klikkaa sitten nähdäksesi säähavainnot ja -ennusteet.

Kartan vaihtaminen: klikkaa mustalla rastilla varustettuja vihreitä pisteitä, niin voit zoomata sisään; viivalla varustettua vihreää pistettä, niin voit zoomata ulos tai vihreitä nuolia, niin pääset viereisille kartoille.


METAR-TAF: